Rock Island, TN

3:19 AM CDT on July 02, 2015 (GMT -0500)
Faulkner Springs | | Change Station
CLOSE
Current Station
Personal Weather Station
Location: McMinnville, TN
Elevation: 928 ft
Nearby Weather Stations
Active Advisory: Special Statement

Elev 928 ft 35.72 °N, 85.75 °W | Updated 4 minutes ago

Thunderstorm
Thunderstorm
66.7 °F
Feels Like 66.7 °F
N
0.0
Wind Variable Wind from East

Today
High -- | Low -- °F
--% Chance of Precip.
Yesterday
High -- | Low -- °F
Precip. -- in
5:30 AM 8:02 PM
Full, 100% visible
Pressure 29.95 in
Visibility 9.0 miles
Clouds Mostly Cloudy 1500 ft
Mostly Cloudy 3000 ft
Mostly Cloudy 3500 ft
Dew Point 65 °F
Humidity 93%
Rainfall 0.59 in
Snow Depth Not available.
UV 0 out of 12
Pollen 2.20 out of 12
Air Quality Not available.
Flu Activity Not available.
METAR KSRB 020815Z AUTO 17005KT 9SM BKN015 BKN030 BKN035 20/19 A2995 RMK

More Conditions Fewer Conditions

Pressure 29.95 in
Visibility 9.0 miles
Clouds Mostly Cloudy 1500 ft
Mostly Cloudy 3000 ft
Mostly Cloudy 3500 ft
Dew Point 65 °F
Humidity 93%
Rainfall 0.59 in
Snow Depth Not available.
UV 0 out of 12
Pollen 2.20 out of 12
Air Quality Not available.
Flu Activity Not available.
METAR KSRB 020815Z AUTO 17005KT 9SM BKN015 BKN030 BKN035 20/19 A2995 RMK

More Conditions Fewer Conditions

10-Day Weather Forecast

×

Almanac

Astronomy

Jul. 02, 2015 Rise Set
Actual Time
Civil Twilight
Nautical Twilight
Astronomical Twilight
Moon
Length of Visible Light
Length of Day
Tomorrow will be .
, % of the Moon is Illuminated

Today's Extremes

State Highs State Lows

Community

WunderPhotos

Upload Photos

1,834,423 photos uploaded!

WunderBlogs® & News

Nearby

Air Quality

  Air Quality AQ Index Pollutant
Not available.

Snow Depth

Station Depth Elevation

Earthquake Activity

City Distance Mag. Time & Date
Minimum magnitude displayed is 2.5.

Coastal Water Temperatures

Place Temperature

Stations

Nearby Weather Stations

Station Location Temp. Windchill Dew Point Humidity Wind Precip. Elev Updated Type
                   
Special Statement
Statement as of 2:37 AM CDT on July 02, 2015

... Heavy rainfall expected across middle Tennessee today into
Saturday...

A series of weather disturbances are forecast to move through the
region with the potential for 2 to 3 inches of rainfall through
Saturday... as several rounds of showers and thunderstorms are
expected across middle Tennessee. With high atmospheric moisture
content... these storms will be capable of producing locally heavy
rainfall that could quickly fill creeks and streams along with
pooling of water in low lying areas. Motorists are urged to drive
with caution where water covers the Road.



Boyd
01